Time;durP1;ratioP1;P1;durP2;ratioP2;P2;SDS_P1;SDS_P2;PMS_P1;PMS_P2;Temp;Humidity;BMP_temperature;BMP_pressure;BME280_temperature;BME280_humidity;BME280_pressure;Samples;Min_cycle;Max_cycle;Signal;HPM_P1;HPM_P2
2023/06/03 11:34:25;;;;;;;2.88;0.50;;;25.10;62.40;;;;;;5105618;27;20381;-74
2023/06/03 11:36:55;;;;;;;2.47;0.38;;;24.90;63.80;;;;;;5104522;28;20413;-74
2023/06/03 11:39:21;;;;;;;2.65;0.40;;;24.90;62.70;;;;;;5090547;28;20472;-74
2023/06/03 11:42:03;;;;;;;3.63;0.50;;;25.00;63.90;;;;;;5104336;28;20403;-74
2023/06/03 11:44:30;;;;;;;1.92;0.40;;;25.10;61.00;;;;;;5125712;27;20432;-74
2023/06/03 11:46:55;;;;;;;2.15;0.40;;;25.20;61.10;;;;;;5099952;28;20906;-74
2023/06/03 11:49:22;;;;;;;1.83;0.30;;;25.00;61.00;;;;;;5091883;28;20405;-74
2023/06/03 11:51:52;;;;;;;1.98;0.40;;;25.10;61.60;;;;;;5098565;28;20938;-74
2023/06/03 11:54:20;;;;;;;1.77;0.30;;;25.10;60.90;;;;;;5091547;28;20420;-74
2023/06/03 11:56:47;;;;;;;3.60;0.50;;;25.10;59.40;;;;;;5101408;28;20402;-74
2023/06/03 11:59:17;;;;;;;2.60;0.30;;;25.00;59.60;;;;;;5102915;28;20929;-74
2023/06/03 12:02:00;;;;;;;1.73;0.40;;;24.90;58.70;;;;;;5087433;28;20414;-74
2023/06/03 12:04:27;;;;;;;2.58;0.40;;;24.80;59.00;;;;;;5085023;28;20413;-74
2023/06/03 12:06:53;;;;;;;2.50;0.40;;;24.90;61.10;;;;;;5100549;28;20959;-74
2023/06/03 12:09:20;;;;;;;2.20;0.30;;;25.10;60.70;;;;;;5102941;28;20393;-74
2023/06/03 12:11:46;;;;;;;3.15;0.40;;;25.20;59.40;;;;;;5095525;28;20569;-74
2023/06/03 12:14:32;;;;;;;1.90;0.30;;;25.10;58.90;;;;;;5086856;28;20485;-74
2023/06/03 12:17:14;;;;;;;;;;;25.30;60.30;;;;;;5082498;28;20047;-74
2023/06/03 12:19:44;;;;;;;;;;;25.40;59.20;;;;;;5072043;28;19927;-74
2023/06/03 12:22:10;;;;;;;;;;;25.50;59.00;;;;;;5085292;28;19971;-74
2023/06/03 12:24:35;;;;;;;;;;;25.60;58.30;;;;;;5085612;28;20376;-74
2023/06/03 12:27:11;;;;;;;;;;;25.60;58.00;;;;;;5093581;28;20468;-74
2023/06/03 12:29:40;;;;;;;;;;;25.60;58.20;;;;;;5098077;28;19920;-74
2023/06/03 12:32:06;;;;;;;;;;;25.70;58.80;;;;;;5092088;28;19920;-74
2023/06/03 12:34:35;;;;;;;;;;;25.70;57.80;;;;;;5117963;28;19927;-74
2023/06/03 12:37:02;;;;;;;;;;;25.70;58.60;;;;;;5095771;28;20427;-74
2023/06/03 12:39:40;;;;;;;;;;;25.70;58.20;;;;;;5123583;27;20297;-74
2023/06/03 12:42:06;;;;;;;3.58;0.25;;;25.70;58.10;;;;;;5109569;27;19920;-75
2023/06/03 12:44:48;;;;;;;1.70;0.40;;;25.70;58.30;;;;;;5115198;27;20400;-75
2023/06/03 12:47:16;;;;;;;1.95;0.30;;;25.60;59.20;;;;;;5100623;28;20974;-75
2023/06/03 12:49:43;;;;;;;2.72;0.30;;;25.60;58.60;;;;;;5108055;28;20440;-75
2023/06/03 12:52:10;;;;;;;2.80;0.50;;;25.60;59.60;;;;;;5106257;28;21109;-75
2023/06/03 12:54:37;;;;;;;2.33;0.38;;;25.70;60.50;;;;;;5108634;28;20463;-75
2023/06/03 12:57:03;;;;;;;2.08;0.45;;;25.90;59.90;;;;;;5101437;28;20981;-75
2023/06/03 12:59:29;;;;;;;3.63;0.40;;;25.90;59.60;;;;;;5099697;28;20483;-74
2023/06/03 13:01:54;;;;;;;1.98;0.30;;;26.00;60.10;;;;;;5103576;28;20830;-74
2023/06/03 13:04:20;;;;;;;;;;;26.10;59.80;;;;;;5101734;28;20047;-75
2023/06/03 13:06:45;;;;;;;;;;;26.10;59.90;;;;;;5105923;28;20006;-75
2023/06/03 13:09:11;;;;;;;;;;;26.10;59.70;;;;;;5089266;28;20010;-75
2023/06/03 13:11:36;;;;;;;;;;;26.20;60.00;;;;;;5107898;28;19926;-74
2023/06/03 13:14:02;;;;;;;;;;;26.30;59.80;;;;;;5109822;28;20977;-75
2023/06/03 13:16:27;;;;;;;;;;;26.40;60.20;;;;;;5098804;28;19920;-75
2023/06/03 13:18:53;;;;;;;2.75;0.38;;;26.60;59.20;;;;;;5091775;28;19920;-74
2023/06/03 13:21:19;;;;;;;1.63;0.30;;;26.70;59.70;;;;;;5094532;28;20503;-74
2023/06/03 13:23:45;;;;;;;3.10;0.50;;;26.60;59.90;;;;;;5108534;28;20399;-75
2023/06/03 13:26:11;;;;;;;2.20;0.30;;;26.60;59.50;;;;;;5076857;28;20417;-75
2023/06/03 13:28:37;;;;;;;1.65;0.32;;;26.60;59.70;;;;;;5098559;28;20416;-74
2023/06/03 13:31:04;;;;;;;2.75;0.68;;;26.90;59.50;;;;;;5102567;28;20406;-75
2023/06/03 13:33:30;;;;;;;1.50;0.30;;;27.10;59.10;;;;;;5099218;28;20922;-75
2023/06/03 13:35:56;;;;;;;1.10;0.40;;;27.40;58.00;;;;;;5106462;28;20423;-75
2023/06/03 13:38:21;;;;;;;2.30;0.30;;;27.60;56.60;;;;;;5089316;28;20567;-75
2023/06/03 13:40:47;;;;;;;1.87;0.40;;;27.80;57.40;;;;;;5100928;28;20390;-75
2023/06/03 13:43:14;;;;;;;1.92;0.40;;;28.00;56.40;;;;;;5099463;28;20400;-75
2023/06/03 13:45:39;;;;;;;2.22;0.40;;;28.00;55.40;;;;;;5105259;28;20412;-76
2023/06/03 13:48:05;;;;;;;1.90;0.40;;;28.30;54.70;;;;;;5104744;28;20407;-76
2023/06/03 13:50:31;;;;;;;2.73;0.50;;;28.70;54.90;;;;;;5104079;28;20461;-76
2023/06/03 13:52:56;;;;;;;1.95;0.30;;;28.70;54.90;;;;;;5106932;28;20457;-76
2023/06/03 13:55:22;;;;;;;1.83;0.52;;;28.90;55.00;;;;;;5102519;28;20497;-76
2023/06/03 13:57:47;;;;;;;3.33;0.32;;;28.90;54.70;;;;;;5094927;28;20449;-76
2023/06/03 14:00:13;;;;;;;2.40;0.40;;;29.00;54.80;;;;;;5100319;28;20441;-76
2023/06/03 14:02:39;;;;;;;1.57;0.30;;;28.80;52.90;;;;;;5097393;28;20403;-76
2023/06/03 14:05:05;;;;;;;2.50;0.30;;;28.80;53.50;;;;;;5093802;28;20973;-76
2023/06/03 14:07:31;;;;;;;3.47;0.77;;;28.80;54.00;;;;;;5099350;28;20428;-76
2023/06/03 14:09:57;;;;;;;1.27;0.32;;;29.00;52.60;;;;;;5103076;28;20865;-75
2023/06/03 14:12:23;;;;;;;;;;;29.30;52.10;;;;;;5107580;28;20059;-75
2023/06/03 14:14:48;;;;;;;;;;;29.50;51.40;;;;;;5094028;28;19924;-75
2023/06/03 14:17:14;;;;;;;2.03;0.30;;;29.60;52.20;;;;;;5103524;28;19962;-75
2023/06/03 14:19:40;;;;;;;1.55;0.32;;;29.80;51.90;;;;;;5093358;28;20104;-76
2023/06/03 14:22:06;;;;;;;1.87;0.40;;;30.00;51.60;;;;;;5099324;28;20485;-76
2023/06/03 14:24:31;;;;;;;2.33;0.30;;;29.90;51.50;;;;;;5101133;28;21576;-75
2023/06/03 14:26:57;;;;;;;1.88;0.55;;;30.00;51.10;;;;;;5100222;28;20402;-75
2023/06/03 14:29:23;;;;;;;1.92;0.20;;;30.00;51.80;;;;;;5101997;28;20405;-75
2023/06/03 14:31:48;;;;;;;2.80;0.40;;;29.90;52.30;;;;;;5097172;28;20783;-75
2023/06/03 14:34:14;;;;;;;1.33;0.30;;;29.90;51.70;;;;;;5104065;28;20782;-76
2023/06/03 14:36:40;;;;;;;;;;;30.00;50.80;;;;;;5089073;28;20043;-75
2023/06/03 14:39:05;;;;;;;;;;;30.10;49.30;;;;;;5093492;28;19944;-75
2023/06/03 14:41:31;;;;;;;;;;;30.10;48.20;;;;;;5105802;28;20339;-75
2023/06/03 14:43:57;;;;;;;;;;;30.20;49.10;;;;;;5104046;28;20297;-75
2023/06/03 14:46:22;;;;;;;;;;;30.30;49.90;;;;;;5083752;28;19978;-75
2023/06/03 14:48:48;;;;;;;;;;;30.20;48.50;;;;;;5101680;28;20010;-75
2023/06/03 14:51:13;;;;;;;;;;;30.00;49.90;;;;;;5099848;28;19919;-75
2023/06/03 14:53:39;;;;;;;;;;;29.90;50.00;;;;;;5105379;28;19933;-75
2023/06/03 14:56:05;;;;;;;;;;;30.10;48.50;;;;;;5103107;28;19966;-75
2023/06/03 14:58:30;;;;;;;3.67;0.75;;;30.10;49.00;;;;;;5074086;28;19927;-75
2023/06/03 15:00:56;;;;;;;2.63;0.60;;;30.00;48.40;;;;;;5105559;28;20830;-75
2023/06/03 15:03:24;;;;;;;1.70;0.40;;;29.90;47.70;;;;;;5101805;28;20779;-75
2023/06/03 15:05:50;;;;;;;1.90;0.43;;;29.90;48.50;;;;;;5092808;28;21005;-75
2023/06/03 15:08:15;;;;;;;3.13;0.70;;;29.90;48.00;;;;;;5101279;28;20402;-75
2023/06/03 15:10:41;;;;;;;4.23;0.33;;;29.80;47.90;;;;;;5106211;28;20392;-75
2023/06/03 15:13:07;;;;;;;2.85;0.30;;;29.50;46.10;;;;;;5103558;28;20436;-75
2023/06/03 15:15:33;;;;;;;0.97;0.30;;;29.20;46.90;;;;;;5105169;28;20435;-75
2023/06/03 15:17:58;;;;;;;1.87;0.20;;;29.00;48.30;;;;;;5083439;28;20430;-75
2023/06/03 15:20:24;;;;;;;1.40;0.30;;;28.80;49.10;;;;;;5106274;28;20804;-75
2023/06/03 15:22:50;;;;;;;2.47;0.32;;;28.70;49.30;;;;;;5103440;28;20402;-75
2023/06/03 15:25:15;;;;;;;4.50;0.30;;;28.50;49.00;;;;;;5105923;28;20433;-74
2023/06/03 15:27:41;;;;;;;3.87;0.30;;;28.50;48.60;;;;;;5090247;28;20492;-75
2023/06/03 15:30:07;;;;;;;1.50;0.37;;;28.50;49.60;;;;;;5098011;28;20745;-75
2023/06/03 15:32:34;;;;;;;2.05;0.40;;;28.60;49.20;;;;;;5088658;28;20432;-73
2023/06/03 15:34:59;;;;;;;3.22;0.30;;;28.40;49.40;;;;;;5106623;28;20408;-76
2023/06/03 15:37:25;;;;;;;2.10;0.40;;;28.20;49.50;;;;;;5095063;28;20427;-75
2023/06/03 15:39:51;;;;;;;1.63;0.32;;;27.90;48.80;;;;;;5106165;28;20419;-75
2023/06/03 15:42:17;;;;;;;1.90;0.60;;;27.70;49.30;;;;;;5105165;28;20394;-75
2023/06/03 15:44:42;;;;;;;1.50;0.40;;;27.30;49.30;;;;;;5096213;28;20410;-75
2023/06/03 15:47:08;;;;;;;2.97;0.50;;;27.10;48.80;;;;;;5102794;28;20831;-75
2023/06/03 15:49:33;;;;;;;1.38;0.30;;;26.90;49.90;;;;;;5104607;28;20404;-75
2023/06/03 15:51:59;;;;;;;2.25;0.40;;;26.80;49.20;;;;;;5103741;28;20455;-75
2023/06/03 15:54:25;;;;;;;3.27;0.63;;;26.50;49.40;;;;;;5095954;28;20456;-75
2023/06/03 15:56:53;;;;;;;2.17;0.68;;;26.30;49.50;;;;;;5092964;28;20493;-75
2023/06/03 15:59:19;;;;;;;6.80;2.90;;;26.10;50.70;;;;;;5105224;28;20479;-76
2023/06/03 16:01:45;;;;;;;1.50;0.60;;;25.80;50.80;;;;;;5092605;28;20813;-75
2023/06/03 16:04:10;;;;;;;3.07;0.43;;;25.40;50.40;;;;;;5105580;28;20400;-76
2023/06/03 16:06:36;;;;;;;0.90;0.20;;;25.20;50.90;;;;;;5092791;28;20398;-76
2023/06/03 16:09:02;;;;;;;1.55;0.30;;;25.00;51.80;;;;;;5105460;28;20428;-76
2023/06/03 16:11:27;;;;;;;1.45;0.45;;;24.90;51.10;;;;;;5102518;28;20405;-75
2023/06/03 16:13:53;;;;;;;1.40;0.40;;;24.70;51.90;;;;;;5104204;28;20439;-75
2023/06/03 16:16:19;;;;;;;2.70;0.50;;;24.70;52.30;;;;;;5101512;28;20418;-75
2023/06/03 16:18:44;;;;;;;3.10;0.53;;;24.70;52.40;;;;;;5105257;28;20854;-75
2023/06/03 16:21:10;;;;;;;3.42;0.40;;;24.60;52.40;;;;;;5087742;28;20771;-75
2023/06/03 16:23:36;;;;;;;2.15;0.93;;;24.30;52.30;;;;;;5090166;28;20412;-75
2023/06/03 16:26:01;;;;;;;2.27;0.70;;;24.10;52.10;;;;;;5103933;28;20441;-75
2023/06/03 16:28:27;;;;;;;2.13;0.47;;;24.00;53.60;;;;;;5107035;28;20924;-75
2023/06/03 16:30:53;;;;;;;2.38;0.40;;;24.10;53.20;;;;;;5076248;28;20872;-76
2023/06/03 16:33:19;;;;;;;2.85;0.85;;;24.10;53.80;;;;;;5099536;28;20436;-75
2023/06/03 16:35:45;;;;;;;3.55;0.80;;;24.10;54.00;;;;;;5094062;28;20790;-75
2023/06/03 16:38:10;;;;;;;2.20;0.50;;;24.10;53.70;;;;;;5098000;28;20765;-75
2023/06/03 16:40:36;;;;;;;3.10;0.70;;;24.10;54.00;;;;;;5106998;28;20394;-75
2023/06/03 16:43:02;;;;;;;3.88;1.10;;;24.10;54.60;;;;;;5109695;28;20400;-75
2023/06/03 16:45:27;;;;;;;2.70;0.70;;;24.10;55.00;;;;;;5107207;28;20889;-75
2023/06/03 16:47:53;;;;;;;2.25;0.82;;;24.20;54.60;;;;;;5107583;28;20407;-76
2023/06/03 16:50:19;;;;;;;3.70;0.53;;;24.10;55.10;;;;;;5106317;28;20425;-75
2023/06/03 16:52:44;;;;;;;4.63;2.37;;;24.10;55.30;;;;;;5109120;28;21120;-75
2023/06/03 16:55:10;;;;;;;2.50;1.20;;;24.00;55.20;;;;;;5094256;28;20417;-75
2023/06/03 16:57:35;;;;;;;2.70;0.60;;;23.80;54.90;;;;;;5108028;28;20754;-75
2023/06/03 17:00:01;;;;;;;2.33;0.63;;;23.70;55.70;;;;;;5107829;28;20397;-75
2023/06/03 17:02:28;;;;;;;3.20;0.60;;;23.50;56.20;;;;;;5107929;28;20804;-75
2023/06/03 17:04:56;;;;;;;1.80;0.50;;;23.30;55.80;;;;;;5105997;28;20418;-75
2023/06/03 17:07:22;;;;;;;1.48;0.40;;;23.10;56.30;;;;;;5109110;28;20440;-75
2023/06/03 17:09:47;;;;;;;2.72;0.60;;;22.90;56.90;;;;;;5105022;28;20427;-75
2023/06/03 17:12:13;;;;;;;2.33;0.40;;;22.80;57.60;;;;;;5100073;28;20402;-75
2023/06/03 17:14:38;;;;;;;2.53;0.60;;;22.70;57.50;;;;;;5088650;28;20459;-75
2023/06/03 17:17:04;;;;;;;1.83;0.40;;;22.60;57.70;;;;;;5098324;28;20762;-75
2023/06/03 17:19:30;;;;;;;2.65;0.30;;;22.50;57.30;;;;;;5092732;28;20974;-75
2023/06/03 17:21:55;;;;;;;1.20;0.47;;;22.40;57.10;;;;;;5107626;28;20399;-75
2023/06/03 17:24:21;;;;;;;3.13;0.47;;;22.30;57.40;;;;;;5104409;28;20489;-75
2023/06/03 17:26:47;;;;;;;2.90;0.40;;;22.20;57.30;;;;;;5106076;28;20405;-75
2023/06/03 17:29:12;;;;;;;2.00;0.50;;;22.10;57.60;;;;;;5103236;28;21002;-75
2023/06/03 17:31:38;;;;;;;1.33;0.30;;;22.00;57.40;;;;;;5098301;28;20477;-75
2023/06/03 17:34:03;;;;;;;2.13;0.30;;;22.00;58.10;;;;;;5104159;28;20438;-75
2023/06/03 17:36:29;;;;;;;1.90;0.38;;;21.80;58.00;;;;;;5100620;28;20409;-75
2023/06/03 17:38:55;;;;;;;1.83;0.33;;;21.70;58.80;;;;;;5103448;28;20413;-75
2023/06/03 17:41:21;;;;;;;2.50;0.32;;;21.60;59.10;;;;;;5107353;28;20404;-75
2023/06/03 17:43:47;;;;;;;1.33;0.30;;;21.50;59.00;;;;;;5105673;28;20428;-75
2023/06/03 17:46:13;;;;;;;1.67;0.30;;;21.30;59.70;;;;;;5108793;28;20755;-75
2023/06/03 17:48:39;;;;;;;2.40;0.47;;;21.10;60.00;;;;;;5105394;28;20406;-75
2023/06/03 17:51:04;;;;;;;1.75;0.40;;;21.10;60.50;;;;;;5089998;28;20400;-75
2023/06/03 17:53:30;;;;;;;1.63;0.40;;;21.00;60.70;;;;;;5103129;28;20494;-75
2023/06/03 17:55:56;;;;;;;1.38;0.43;;;20.90;60.80;;;;;;5088895;28;20438;-76
2023/06/03 17:58:22;;;;;;;1.35;0.35;;;20.90;61.40;;;;;;5093029;28;20424;-75
2023/06/03 18:00:48;;;;;;;2.47;0.38;;;20.80;61.70;;;;;;5108486;28;20408;-74
2023/06/03 18:03:14;;;;;;;2.10;0.30;;;20.70;61.50;;;;;;5104003;28;21127;-74
2023/06/03 18:05:40;;;;;;;1.50;0.40;;;20.50;61.40;;;;;;5096951;28;20408;-74
2023/06/03 18:08:05;;;;;;;1.65;0.40;;;20.50;61.30;;;;;;5106822;28;20434;-75
2023/06/03 18:10:31;;;;;;;1.30;0.30;;;20.40;61.50;;;;;;5108280;28;20393;-75
2023/06/03 18:13:00;;;;;;;1.80;0.30;;;20.30;62.00;;;;;;5102975;28;20410;-75
2023/06/03 18:15:25;;;;;;;2.28;0.40;;;20.30;62.30;;;;;;5090043;28;20417;-74
2023/06/03 18:17:53;;;;;;;2.37;0.20;;;20.20;62.10;;;;;;5099275;28;20410;-74
2023/06/03 18:20:18;;;;;;;1.80;0.30;;;20.10;62.20;;;;;;5105941;28;20898;-75
2023/06/03 18:22:44;;;;;;;2.20;0.30;;;20.00;63.00;;;;;;5100017;28;20425;-75
2023/06/03 18:25:10;;;;;;;4.10;0.30;;;19.90;63.00;;;;;;5084892;28;20410;-75
2023/06/03 18:27:36;;;;;;;0.60;0.20;;;19.80;62.80;;;;;;5089877;28;20424;-75
2023/06/03 18:30:02;;;;;;;1.83;0.30;;;19.70;62.30;;;;;;5093855;28;20438;-75
2023/06/03 18:32:27;;;;;;;2.17;0.73;;;19.60;63.40;;;;;;5076974;28;20514;-75
2023/06/03 18:34:53;;;;;;;2.60;0.40;;;19.50;63.70;;;;;;5097592;28;20411;-75
2023/06/03 18:37:19;;;;;;;1.58;0.50;;;19.30;64.40;;;;;;5100001;28;22347;-75
2023/06/03 18:39:45;;;;;;;1.55;0.30;;;19.20;64.60;;;;;;5098658;28;20413;-75
2023/06/03 18:42:10;;;;;;;1.85;0.30;;;19.20;64.90;;;;;;5091180;28;20524;-75
2023/06/03 18:44:36;;;;;;;2.47;0.50;;;19.10;65.50;;;;;;5075987;28;20412;-75
2023/06/03 18:47:03;;;;;;;2.22;0.60;;;19.10;65.80;;;;;;5080721;28;20398;-75
2023/06/03 18:49:29;;;;;;;1.92;0.30;;;19.10;66.30;;;;;;5104790;28;20431;-75
2023/06/03 18:51:55;;;;;;;2.00;0.50;;;19.00;66.10;;;;;;5092223;28;20406;-75
2023/06/03 18:54:20;;;;;;;1.47;0.40;;;19.00;66.50;;;;;;5104781;28;20462;-75
2023/06/03 18:56:46;;;;;;;2.72;0.50;;;18.90;66.80;;;;;;5098041;28;20773;-75
2023/06/03 18:59:11;;;;;;;1.53;0.40;;;18.90;66.90;;;;;;5096201;28;21199;-75
2023/06/03 19:01:37;;;;;;;1.90;0.30;;;18.90;67.30;;;;;;5091307;28;20823;-75
2023/06/03 19:04:03;;;;;;;1.85;0.40;;;18.90;67.00;;;;;;5099064;28;20897;-75
2023/06/03 19:06:29;;;;;;;2.08;0.40;;;18.90;67.30;;;;;;5096731;28;20435;-75
2023/06/03 19:08:54;;;;;;;2.78;0.40;;;18.90;67.60;;;;;;5095788;28;20497;-74
2023/06/03 19:11:20;;;;;;;1.70;0.40;;;18.80;67.80;;;;;;5091804;28;20414;-75
2023/06/03 19:13:45;;;;;;;2.27;0.40;;;18.70;68.30;;;;;;5077707;28;20450;-75
2023/06/03 19:16:11;;;;;;;3.42;0.40;;;18.70;68.20;;;;;;5094150;28;20417;-75
2023/06/03 19:18:37;;;;;;;1.52;0.32;;;18.60;68.00;;;;;;5070448;28;20406;-75
2023/06/03 19:21:03;;;;;;;2.03;0.38;;;18.60;67.90;;;;;;5091525;28;20456;-75
2023/06/03 19:23:32;;;;;;;0.90;0.25;;;18.50;67.90;;;;;;5098770;28;20408;-74
2023/06/03 19:25:58;;;;;;;2.13;0.40;;;18.30;67.60;;;;;;5095726;28;20439;-75
2023/06/03 19:28:23;;;;;;;2.92;0.50;;;18.30;67.90;;;;;;5094798;28;20404;-72
2023/06/03 19:30:49;;;;;;;2.63;0.53;;;18.20;68.40;;;;;;5094991;28;20462;-71
2023/06/03 19:33:15;;;;;;;1.90;0.40;;;18.20;69.00;;;;;;5096330;28;20467;-72
2023/06/03 19:35:41;;;;;;;3.53;0.40;;;18.10;70.20;;;;;;5102218;28;20427;-74
2023/06/03 19:38:06;;;;;;;1.65;0.52;;;18.00;69.70;;;;;;5094692;28;20448;-73
2023/06/03 19:40:32;;;;;;;2.90;0.50;;;18.00;70.50;;;;;;5097781;28;20799;-75
2023/06/03 19:42:58;;;;;;;1.70;0.50;;;17.90;71.20;;;;;;5080473;28;20513;-75
2023/06/03 19:45:24;;;;;;;2.27;0.67;;;17.80;71.90;;;;;;5087756;28;20417;-75
2023/06/03 19:47:56;;;;;;;2.05;0.50;;;17.80;72.70;;;;;;5081357;28;20587;-75
2023/06/03 19:50:23;;;;;;;2.20;0.50;;;17.70;72.60;;;;;;5086745;28;20490;-75
2023/06/03 19:52:48;;;;;;;3.08;0.63;;;17.60;73.00;;;;;;5087419;28;20493;-75
2023/06/03 19:55:14;;;;;;;3.25;0.77;;;17.50;73.60;;;;;;5091946;28;20411;-75
2023/06/03 19:57:40;;;;;;;2.63;0.60;;;17.40;74.10;;;;;;5095669;28;20771;-74
2023/06/03 20:00:07;;;;;;;3.22;0.70;;;17.40;74.90;;;;;;5100062;28;20474;-75
2023/06/03 20:02:33;;;;;;;2.95;0.88;;;17.30;75.40;;;;;;5107781;28;20449;-75
2023/06/03 20:04:58;;;;;;;3.17;0.70;;;17.20;76.10;;;;;;5083207;28;20503;-74
2023/06/03 20:07:24;;;;;;;1.93;0.50;;;17.10;76.90;;;;;;5092200;28;20919;-74
2023/06/03 20:09:50;;;;;;;3.25;0.80;;;17.10;77.60;;;;;;5090010;28;20462;-74
2023/06/03 20:12:16;;;;;;;2.30;0.73;;;17.10;78.00;;;;;;5071854;28;20518;-74
2023/06/03 20:14:41;;;;;;;3.55;0.70;;;17.00;78.60;;;;;;5089311;28;20437;-74
2023/06/03 20:17:08;;;;;;;4.13;1.27;;;17.00;79.40;;;;;;5073992;28;20464;-74
2023/06/03 20:19:34;;;;;;;2.87;0.60;;;17.00;80.10;;;;;;5077134;28;20465;-74
2023/06/03 20:22:00;;;;;;;3.60;0.80;;;16.90;80.70;;;;;;5087412;28;20414;-74
2023/06/03 20:24:26;;;;;;;4.47;0.88;;;16.80;81.50;;;;;;5090012;28;20422;-74
2023/06/03 20:26:52;;;;;;;3.17;1.10;;;16.80;82.50;;;;;;5095550;28;20426;-74
2023/06/03 20:29:18;;;;;;;3.25;0.88;;;16.80;83.40;;;;;;5094273;28;20471;-74
2023/06/03 20:31:44;;;;;;;4.10;0.90;;;16.80;84.50;;;;;;5090032;28;20484;-74
2023/06/03 20:34:10;;;;;;;2.90;0.77;;;16.80;84.80;;;;;;5093913;28;20437;-74
2023/06/03 20:36:37;;;;;;;3.40;1.00;;;16.80;85.50;;;;;;5099555;28;20451;-74
2023/06/03 20:39:04;;;;;;;3.57;0.90;;;16.70;86.50;;;;;;5086415;28;20473;-75
2023/06/03 20:41:29;;;;;;;4.15;0.88;;;16.70;87.20;;;;;;5091085;28;20935;-74
2023/06/03 20:43:55;;;;;;;6.13;1.30;;;16.60;88.10;;;;;;5091787;28;20433;-74
2023/06/03 20:46:21;;;;;;;3.95;1.10;;;16.60;89.40;;;;;;5100021;28;20396;-74
2023/06/03 20:48:46;;;;;;;3.30;1.10;;;16.60;90.10;;;;;;5102802;28;20546;-75
2023/06/03 20:51:12;;;;;;;4.88;1.50;;;16.50;90.40;;;;;;5106424;28;20448;-74
2023/06/03 20:53:39;;;;;;;4.25;0.98;;;16.50;90.70;;;;;;5097067;28;20441;-74
2023/06/03 20:56:05;;;;;;;5.80;1.40;;;16.40;91.30;;;;;;5086613;28;20455;-74
2023/06/03 20:58:30;;;;;;;3.77;1.10;;;16.40;92.00;;;;;;5061267;28;20524;-74
2023/06/03 21:00:56;;;;;;;6.30;1.50;;;16.30;92.60;;;;;;5075026;28;20435;-75
2023/06/03 21:03:22;;;;;;;5.30;1.23;;;16.30;93.20;;;;;;5081369;28;20406;-73
2023/06/03 21:05:47;;;;;;;4.63;1.30;;;16.30;93.80;;;;;;5069904;28;20426;-74
2023/06/03 21:08:13;;;;;;;5.90;1.20;;;16.20;94.10;;;;;;5077271;28;20435;-74
2023/06/03 21:10:38;;;;;;;5.43;1.43;;;16.10;94.60;;;;;;5076471;28;20434;-74
2023/06/03 21:13:05;;;;;;;3.92;1.20;;;16.10;95.20;;;;;;5096198;28;20516;-74
2023/06/03 21:15:31;;;;;;;6.37;1.23;;;16.10;95.80;;;;;;5079783;28;20406;-74
2023/06/03 21:17:57;;;;;;;5.30;1.45;;;16.00;96.30;;;;;;5082380;28;20436;-74
2023/06/03 21:20:23;;;;;;;6.63;1.77;;;16.00;97.20;;;;;;5078923;28;20411;-73
2023/06/03 21:22:49;;;;;;;5.43;1.27;;;16.00;97.40;;;;;;5071760;28;20415;-74
2023/06/03 21:25:14;;;;;;;6.13;1.48;;;15.90;97.90;;;;;;5084258;28;20399;-74
2023/06/03 21:27:42;;;;;;;7.07;1.30;;;15.80;98.40;;;;;;5086351;28;20778;-74
2023/06/03 21:30:08;;;;;;;4.73;1.00;;;15.80;98.70;;;;;;5079839;28;20418;-74
2023/06/03 21:32:34;;;;;;;6.18;1.20;;;15.70;99.20;;;;;;5076209;28;20546;-74
2023/06/03 21:34:59;;;;;;;6.57;1.60;;;15.70;99.50;;;;;;5085548;28;20490;-75
2023/06/03 21:37:25;;;;;;;5.93;1.40;;;15.70;99.90;;;;;;5079921;28;20418;-75
2023/06/03 21:39:54;;;;;;;7.97;2.00;;;15.60;99.90;;;;;;5075424;28;20399;-74
2023/06/03 21:42:23;;;;;;;5.93;1.40;;;15.50;99.90;;;;;;5081169;28;20897;-74
2023/06/03 21:44:50;;;;;;;4.67;1.20;;;15.60;99.90;;;;;;5088850;28;20412;-74
2023/06/03 21:47:15;;;;;;;6.47;1.38;;;15.60;99.90;;;;;;5079733;28;20453;-74
2023/06/03 21:49:41;;;;;;;6.90;1.70;;;15.50;99.90;;;;;;5081387;28;20858;-74
2023/06/03 21:52:07;;;;;;;6.05;1.50;;;15.40;99.90;;;;;;5077185;28;20406;-75
2023/06/03 21:54:33;;;;;;;5.32;1.38;;;15.30;99.90;;;;;;5080048;28;20434;-74
2023/06/03 21:56:59;;;;;;;4.83;1.20;;;15.30;99.90;;;;;;5086259;28;20485;-74
2023/06/03 21:59:24;;;;;;;5.35;1.40;;;15.30;99.90;;;;;;5099774;28;20432;-75
2023/06/03 22:01:50;;;;;;;8.40;1.60;;;15.30;99.90;;;;;;5099973;28;20440;-74
2023/06/03 22:04:17;;;;;;;6.90;1.77;;;15.20;99.90;;;;;;5101515;28;20443;-73
2023/06/03 22:06:43;;;;;;;8.32;1.50;;;15.20;99.90;;;;;;5088104;28;20454;-73
2023/06/03 22:09:08;;;;;;;8.35;1.52;;;15.20;99.90;;;;;;5098330;28;20404;-73
2023/06/03 22:11:34;;;;;;;7.40;1.77;;;15.10;99.90;;;;;;5093098;28;20407;-73
2023/06/03 22:14:00;;;;;;;5.47;1.30;;;15.10;99.90;;;;;;5101184;28;20432;-73
2023/06/03 22:16:25;;;;;;;5.90;1.77;;;15.10;99.90;;;;;;5094673;28;20411;-74
2023/06/03 22:18:51;;;;;;;6.38;1.35;;;15.10;99.90;;;;;;5107340;28;20411;-74
2023/06/03 22:21:16;;;;;;;7.10;1.52;;;15.00;99.90;;;;;;5103541;28;20435;-74
2023/06/03 22:23:42;;;;;;;7.53;2.03;;;15.00;99.90;;;;;;5106947;28;20408;-74
2023/06/03 22:26:07;;;;;;;7.00;1.60;;;15.00;99.90;;;;;;5101514;28;20409;-74
2023/06/03 22:28:33;;;;;;;8.50;1.70;;;15.00;99.90;;;;;;5096082;28;20404;-74
2023/06/03 22:31:00;;;;;;;6.93;1.57;;;14.90;99.90;;;;;;5100566;28;21234;-74
2023/06/03 22:33:25;;;;;;;6.75;1.63;;;14.90;99.90;;;;;;5098948;28;20481;-74
2023/06/03 22:35:52;;;;;;;9.80;1.67;;;14.90;99.90;;;;;;5104995;28;20405;-74
2023/06/03 22:38:17;;;;;;;8.73;1.92;;;14.80;99.90;;;;;;5106984;28;20408;-74
2023/06/03 22:40:49;;;;;;;6.55;1.50;;;14.80;99.90;;;;;;5105493;28;20438;-74
2023/06/03 22:43:18;;;;;;;5.80;1.63;;;14.80;99.90;;;;;;5107527;28;20400;-74
2023/06/03 22:45:44;;;;;;;8.95;1.70;;;14.80;99.90;;;;;;5092257;28;20468;-74
2023/06/03 22:48:11;;;;;;;9.18;1.67;;;14.70;99.90;;;;;;5096147;28;20410;-74
2023/06/03 22:50:36;;;;;;;6.80;1.60;;;14.70;99.90;;;;;;5104239;28;20404;-74
2023/06/03 22:53:02;;;;;;;8.23;1.80;;;14.70;99.90;;;;;;5105947;28;20439;-74
2023/06/03 22:55:27;;;;;;;6.23;1.60;;;14.60;99.90;;;;;;5093817;28;20517;-74
2023/06/03 22:57:53;;;;;;;9.30;1.90;;;14.60;99.90;;;;;;5106169;28;20404;-74
2023/06/03 23:00:19;;;;;;;11.48;2.20;;;14.50;99.90;;;;;;5093760;28;20396;-74
2023/06/03 23:02:44;;;;;;;6.80;1.67;;;14.50;99.90;;;;;;5107247;28;20404;-74
2023/06/03 23:05:10;;;;;;;8.55;1.90;;;14.50;99.90;;;;;;5106101;28;20769;-74
2023/06/03 23:07:36;;;;;;;9.83;1.90;;;14.40;99.90;;;;;;5107457;28;20419;-74
2023/06/03 23:10:03;;;;;;;8.07;1.52;;;14.40;99.90;;;;;;5105466;28;20489;-75
2023/06/03 23:12:29;;;;;;;9.80;2.10;;;14.40;99.90;;;;;;5094041;28;20527;-74
2023/06/03 23:14:54;;;;;;;8.10;1.65;;;14.30;99.90;;;;;;5104572;28;20487;-74
2023/06/03 23:17:20;;;;;;;9.05;2.08;;;14.30;99.90;;;;;;5107299;28;20446;-74
2023/06/03 23:19:45;;;;;;;9.50;2.00;;;14.30;99.90;;;;;;5104371;28;20635;-74
2023/06/03 23:22:11;;;;;;;8.10;1.60;;;14.30;99.90;;;;;;5106095;28;20396;-74
2023/06/03 23:24:37;;;;;;;8.07;1.60;;;14.20;99.90;;;;;;5104000;28;20397;-74
2023/06/03 23:27:02;;;;;;;8.00;1.67;;;14.20;99.90;;;;;;5106075;28;20396;-74
2023/06/03 23:29:28;;;;;;;9.55;1.60;;;14.10;99.90;;;;;;5102970;28;20404;-74
2023/06/03 23:31:54;;;;;;;8.53;1.57;;;14.20;99.90;;;;;;5095045;28;20752;-74
2023/06/03 23:34:19;;;;;;;6.72;1.70;;;14.10;99.90;;;;;;5100335;28;20906;-74
2023/06/03 23:36:45;;;;;;;7.83;1.67;;;14.10;99.90;;;;;;5087964;28;20394;-74
2023/06/03 23:39:11;;;;;;;7.32;1.85;;;14.00;99.90;;;;;;5104077;28;20407;-74
2023/06/03 23:41:36;;;;;;;8.03;1.97;;;14.00;99.90;;;;;;5106083;28;20412;-74
2023/06/03 23:44:02;;;;;;;9.35;1.77;;;14.00;99.90;;;;;;5104406;28;20411;-74
2023/06/03 23:46:28;;;;;;;7.78;1.77;;;14.00;99.90;;;;;;5106920;28;20538;-74
2023/06/03 23:48:54;;;;;;;7.28;1.50;;;14.00;99.90;;;;;;5105480;28;20393;-74
2023/06/03 23:51:20;;;;;;;9.75;1.90;;;13.90;99.90;;;;;;5095384;28;20818;-74
2023/06/03 23:53:46;;;;;;;8.37;1.80;;;13.90;99.90;;;;;;5101534;28;20438;-74
2023/06/03 23:56:11;;;;;;;7.45;1.58;;;13.90;99.90;;;;;;5105747;28;20393;-74
2023/06/03 23:58:38;;;;;;;8.17;1.80;;;13.90;99.90;;;;;;5092014;28;20408;-74
